CYLW/YLW METAR and TAF weather

Enter ICAO airport designator
Station Type Date Time Source
CYLW METAR 2020/02/21 16:00 UTC NOAA

CYLW 211600Z AUTO 00000KT 9SM CLR M04/M06 A3023 RMK SLP262


Station Type Date Time Source
CYLW Decoded METAR 2020/02/21 16:00 UTC NOAA

Kelowna Airport, Canada (CYLW) 49-58N 119-23W 430M
Feb 21, 2020 - 11:00 AM EST / 2020.02.21 1600 UTC
Wind: Calm:0
Visibility: 9 mile(s):0
Sky conditions: clear
Temperature: 24 F (-4 C)
Dew Point: 21 F (-6 C)
Relative Humidity: 85%
Pressure (altimeter): 30.23 in. Hg (1023 hPa)
ob: CYLW 211600Z AUTO 00000KT 9SM CLR M04/M06 A3023 RMK SLP262
cycle: 16

Station Type Date Time Source
CYLW TAF 2020/02/21 13:42 UTC NOAA

TAF CYLW 211238Z 2113/2201 VRB03KT P6SM SCT240
FM211800 17007KT P6SM BKN150
RMK FCST BASED ON AUTO OBS. NXT FCST BY 211900Z

Example: see airport list